Аэропорт: Рощино. Тюмень

ICAO: USTR

METAR:
2020-10-23 11:30:00
USTR 231130Z 31005MPS 9999 BKN036CB M03/M08 Q1017 R30/CLRD65 R21/CLRD65 NOSIG RMK QFE753/1004
METAR:
2020-10-23 10:44:00
TAF USTR 231044Z 2312/2412 30003G08MPS 9999 BKN020CB BECMG 2314/2315 24003MPS BECMG 2400/2401 17005G10MPS TEMPO 2409/2412 14007G14MPS